createdAt,value
2017-02-01T00:00:24.917Z,93.89
2017-02-01T00:00:54.948Z,93.89
2017-02-01T00:01:24.974Z,94.08
2017-02-01T00:01:55.035Z,93.99
2017-02-01T00:02:25.039Z,93.51
2017-02-01T00:02:54.928Z,93.7
2017-02-01T00:03:24.954Z,93.7
2017-02-01T00:03:55.160Z,93.42
2017-02-01T00:04:25.155Z,93.7
2017-02-01T00:04:55.184Z,93.89
2017-02-01T00:05:25.216Z,93.8
2017-02-01T00:05:55.247Z,93.89
2017-02-01T00:06:25.283Z,93.7
2017-02-01T00:06:55.316Z,93.8
2017-02-01T00:07:25.194Z,93.89
2017-02-01T00:07:55.377Z,93.51
2017-02-01T00:08:25.399Z,93.7
2017-02-01T00:08:55.429Z,93.61
2017-02-01T00:09:25.463Z,93.8
2017-02-01T00:09:55.488Z,93.61
2017-02-01T00:10:25.520Z,93.61
2017-02-01T00:10:55.582Z,94.08
2017-02-01T00:11:25.579Z,93.99
2017-02-01T00:11:55.614Z,93.99
2017-02-01T00:12:25.640Z,93.99
2017-02-01T00:12:55.680Z,93.89
2017-02-01T00:13:25.561Z,93.89
2017-02-01T00:13:55.980Z,93.99
2017-02-01T00:14:25.764Z,94.08
2017-02-01T00:14:55.797Z,94.08
2017-02-01T00:15:25.821Z,93.89
2017-02-01T00:15:55.857Z,94.37
2017-02-01T00:16:25.891Z,94.18
2017-02-01T00:16:55.915Z,94.18
2017-02-01T00:17:25.942Z,94.27
2017-02-01T00:17:55.972Z,94.56
2017-02-01T00:18:26.003Z,94.27
2017-02-01T00:18:56.034Z,94.08
2017-02-01T00:19:26.065Z,94.65
2017-02-01T00:19:56.094Z,94.56
2017-02-01T00:20:26.124Z,94.27
2017-02-01T00:20:56.157Z,94.46
2017-02-01T00:21:26.212Z,94.56
2017-02-01T00:21:56.213Z,94.46
2017-02-01T00:22:26.245Z,94.27
2017-02-01T00:22:56.271Z,94.65
2017-02-01T00:23:26.309Z,94.56
2017-02-01T00:23:56.334Z,94.37
2017-02-01T00:24:26.369Z,94.46
2017-02-01T00:24:56.399Z,94.18
2017-02-01T00:25:26.424Z,94.08
2017-02-01T00:25:56.459Z,94.18
2017-02-01T00:26:26.493Z,93.89
2017-02-01T00:26:56.517Z,93.89
2017-02-01T00:27:26.548Z,93.89
2017-02-01T00:27:56.580Z,93.89
2017-02-01T00:28:26.605Z,93.99
2017-02-01T00:28:56.648Z,93.89
2017-02-01T00:29:26.973Z,94.18
2017-02-01T00:29:56.701Z,94.18
2017-02-01T00:30:26.736Z,94.04
2017-02-01T00:30:56.757Z,94.18
2017-02-01T00:31:26.787Z,94.08
2017-02-01T00:31:56.824Z,94.08
2017-02-01T00:32:26.848Z,93.8
2017-02-01T00:32:56.887Z,93.89
2017-02-01T00:33:26.910Z,93.89
2017-02-01T00:33:56.941Z,93.89
2017-02-01T00:34:26.975Z,93.89
2017-02-01T00:34:57.001Z,93.89
2017-02-01T00:35:27.045Z,94.08
2017-02-01T00:35:57.064Z,93.89
2017-02-01T00:36:27.095Z,94.08
2017-02-01T00:36:57.153Z,93.99
2017-02-01T00:37:27.152Z,93.8
2017-02-01T00:37:57.184Z,94.08
2017-02-01T00:38:27.218Z,93.89
2017-02-01T00:38:57.244Z,93.99
2017-02-01T00:39:27.280Z,93.99
2017-02-01T00:39:57.304Z,93.89
2017-02-01T00:40:27.334Z,94.08
2017-02-01T00:40:57.365Z,93.99
2017-02-01T00:41:27.397Z,93.89
2017-02-01T00:41:57.446Z,93.8
2017-02-01T00:42:27.455Z,94.08
2017-02-01T00:42:57.347Z,93.99
2017-02-01T00:43:27.515Z,94.08
2017-02-01T00:43:57.548Z,93.99
2017-02-01T00:44:27.575Z,94.08
2017-02-01T00:44:58.262Z,93.89
2017-02-01T00:45:27.636Z,94.37
2017-02-01T00:45:57.662Z,94.27
2017-02-01T00:46:27.696Z,94.37
2017-02-01T00:46:57.727Z,94.08
2017-02-01T00:47:27.757Z,94.08
2017-02-01T00:47:57.787Z,94.27
2017-02-01T00:48:27.812Z,94.18
2017-02-01T00:48:57.850Z,93.89
2017-02-01T00:49:27.878Z,94.27
2017-02-01T00:49:57.915Z,94.37
2017-02-01T00:50:27.934Z,94.37
2017-02-01T00:50:58.006Z,94.65
2017-02-01T00:51:27.996Z,94.65
2017-02-01T00:51:58.029Z,94.37
2017-02-01T00:52:28.054Z,94.65
2017-02-01T00:52:58.086Z,94.27
2017-02-01T00:53:28.121Z,93.89
2017-02-01T00:53:58.147Z,94.27
2017-02-01T00:54:28.177Z,94.08
2017-02-01T00:54:58.211Z,94.08
2017-02-01T00:55:28.245Z,94.27
2017-02-01T00:55:58.283Z,94.65
2017-02-01T00:56:28.297Z,94.46
2017-02-01T00:56:58.338Z,94.65
2017-02-01T00:57:28.359Z,94.65
2017-02-01T00:57:58.392Z,94.27
2017-02-01T00:58:28.418Z,94.46
2017-02-01T00:58:58.443Z,94.46
2017-02-01T00:59:28.476Z,94.08
2017-02-01T00:59:58.508Z,94.56
2017-02-01T01:00:28.537Z,94.46
2017-02-01T01:00:58.571Z,94.27
2017-02-01T01:01:28.603Z,94.65
2017-02-01T01:01:58.626Z,94.65
2017-02-01T01:02:28.657Z,94.56
2017-02-01T01:02:58.692Z,94.65
2017-02-01T01:03:28.724Z,94.56
2017-02-01T01:03:58.751Z,94.37
2017-02-01T01:04:28.779Z,94.65
2017-02-01T01:04:58.808Z,94.37
2017-02-01T01:05:29.092Z,94.65
2017-02-01T01:05:58.869Z,94.37
2017-02-01T01:06:28.899Z,94.27
2017-02-01T01:06:58.929Z,94.27
2017-02-01T01:07:28.959Z,94.37
2017-02-01T01:07:58.990Z,94.08
2017-02-01T01:08:29.020Z,94.37
2017-02-01T01:08:59.056Z,94.56
2017-02-01T01:09:29.081Z,94.37
2017-02-01T01:09:59.112Z,94.56
2017-02-01T01:10:29.440Z,94.65
2017-02-01T01:10:59.171Z,94.27
2017-02-01T01:11:29.204Z,94.08
2017-02-01T01:11:59.233Z,94.56
2017-02-01T01:12:29.263Z,94.08
2017-02-01T01:12:59.294Z,94.27
2017-02-01T01:13:29.324Z,94.18
2017-02-01T01:13:59.353Z,94.18
2017-02-01T01:14:29.385Z,94.27
2017-02-01T01:14:59.408Z,94.27
2017-02-01T01:15:29.442Z,94.27
2017-02-01T01:15:59.478Z,94.08
2017-02-01T01:16:29.503Z,94.56
2017-02-01T01:16:59.533Z,94.18
2017-02-01T01:17:29.562Z,94.27
2017-02-01T01:17:59.595Z,94.27
2017-02-01T01:18:29.473Z,94.18
2017-02-01T01:18:59.648Z,94.56
2017-02-01T01:19:29.535Z,94.27
2017-02-01T01:19:59.716Z,94.37
2017-02-01T01:20:29.592Z,94.37
2017-02-01T01:20:59.771Z,94.37
2017-02-01T01:21:29.804Z,94.56
2017-02-01T01:21:59.833Z,94.27
2017-02-01T01:22:29.857Z,94.37
2017-02-01T01:22:59.890Z,94.84
2017-02-01T01:23:29.774Z,94.84
2017-02-01T01:23:59.952Z,94.65
2017-02-01T01:24:29.985Z,94.65
2017-02-01T01:25:00.009Z,94.65
2017-02-01T01:25:30.042Z,94.56
2017-02-01T01:26:00.075Z,94.37
2017-02-01T01:26:30.103Z,94.37
2017-02-01T01:27:00.132Z,94.46
2017-02-01T01:27:30.168Z,94.56
2017-02-01T01:28:00.192Z,94.46
2017-02-01T01:28:30.223Z,94.56
2017-02-01T01:29:00.121Z,95.12
2017-02-01T01:29:30.284Z,94.27
2017-02-01T01:30:00.316Z,95.21
2017-02-01T01:30:30.339Z,95.12
2017-02-01T01:31:00.724Z,95.21
2017-02-01T01:31:30.403Z,95.12
2017-02-01T01:32:00.434Z,95.12
2017-02-01T01:32:30.461Z,95.21
2017-02-01T01:33:00.492Z,95.21
2017-02-01T01:33:30.559Z,95.21
2017-02-01T01:34:00.550Z,95.21
2017-02-01T01:34:30.599Z,95.21
2017-02-01T01:35:00.610Z,95.21
2017-02-01T01:35:30.641Z,95.21
2017-02-01T01:36:00.924Z,95.03
2017-02-01T01:36:30.699Z,94.46
2017-02-01T01:37:00.733Z,94.46
2017-02-01T01:37:30.767Z,94.65
2017-02-01T01:38:00.794Z,94.56
2017-02-01T01:38:30.823Z,94.65
2017-02-01T01:39:00.856Z,94.56
2017-02-01T01:39:30.879Z,94.37
2017-02-01T01:40:00.917Z,94.65
2017-02-01T01:40:30.943Z,94.65
2017-02-01T01:41:00.972Z,94.74
2017-02-01T01:41:31.001Z,94.65
2017-02-01T01:42:01.029Z,94.65
2017-02-01T01:42:31.064Z,94.56
2017-02-01T01:43:01.092Z,94.56
2017-02-01T01:43:31.120Z,94.65
2017-02-01T01:44:01.152Z,94.65
2017-02-01T01:44:31.179Z,94.74
2017-02-01T01:45:01.209Z,94.65
2017-02-01T01:45:31.241Z,94.56
2017-02-01T01:46:01.277Z,94.84
2017-02-01T01:46:31.302Z,94.84
2017-02-01T01:47:01.335Z,94.08
2017-02-01T01:47:31.364Z,94.74
2017-02-01T01:48:01.393Z,93.99
2017-02-01T01:48:31.423Z,94.56
2017-02-01T01:49:01.453Z,94.65
2017-02-01T01:49:31.483Z,94.08
2017-02-01T01:50:01.516Z,94.37
2017-02-01T01:50:31.543Z,94.46
2017-02-01T01:51:01.573Z,94.27
2017-02-01T01:51:31.941Z,94.46
2017-02-01T01:52:01.934Z,94.37
2017-02-01T01:52:31.661Z,94.46
2017-02-01T01:53:02.144Z,94.27
2017-02-01T01:53:31.722Z,94.37
2017-02-01T01:54:01.763Z,94.37
2017-02-01T01:54:31.784Z,94.08
2017-02-01T01:55:02.164Z,94.37
2017-02-01T01:55:31.843Z,94.27
2017-02-01T01:56:01.779Z,94.27
2017-02-01T01:56:31.931Z,94.27
2017-02-01T01:57:02.235Z,94.46
2017-02-01T01:57:31.963Z,94.27
2017-02-01T01:58:01.996Z,94.37
2017-02-01T01:58:32.026Z,94.46
2017-02-01T01:59:02.060Z,94.27
2017-02-01T01:59:32.081Z,94.27
2017-02-01T02:00:02.422Z,94.37
2017-02-01T02:00:32.144Z,94.46
2017-02-01T02:01:02.226Z,94.27
2017-02-01T02:01:32.203Z,94.46
2017-02-01T02:02:02.295Z,94.08
2017-02-01T02:02:32.265Z,94.37
2017-02-01T02:03:02.299Z,94.46
2017-02-01T02:03:32.328Z,94.27
2017-02-01T02:04:02.358Z,94.74
2017-02-01T02:04:32.381Z,94.56
2017-02-01T02:05:02.565Z,94.08
2017-02-01T02:05:32.445Z,94.56
2017-02-01T02:06:02.485Z,94.18
2017-02-01T02:06:32.508Z,94.46
2017-02-01T02:07:03.147Z,94.37
2017-02-01T02:07:32.568Z,94.37
2017-02-01T02:08:02.697Z,94.46
2017-02-01T02:08:32.642Z,94.37
2017-02-01T02:09:02.657Z,94.27
2017-02-01T02:09:32.692Z,94.18
2017-02-01T02:10:02.723Z,94.08
2017-02-01T02:10:32.747Z,94.56
2017-02-01T02:11:02.780Z,94.27
2017-02-01T02:11:32.809Z,93.89
2017-02-01T02:12:03.038Z,94.56
2017-02-01T02:12:32.867Z,94.56
2017-02-01T02:13:02.901Z,94.56
2017-02-01T02:13:32.933Z,94.27
2017-02-01T02:14:03.209Z,94.37
2017-02-01T02:14:32.987Z,94.37
2017-02-01T02:15:03.075Z,94.18
2017-02-01T02:15:33.049Z,93.99
2017-02-01T02:16:03.077Z,93.99
2017-02-01T02:16:33.108Z,94.37
2017-02-01T02:17:03.141Z,94.37
2017-02-01T02:17:33.167Z,94.37
2017-02-01T02:18:03.203Z,93.99
2017-02-01T02:18:33.228Z,94.37
2017-02-01T02:19:03.267Z,94.18
2017-02-01T02:19:33.293Z,94.08
2017-02-01T02:20:03.319Z,94.08
2017-02-01T02:20:33.351Z,93.89
2017-02-01T02:21:03.381Z,94.08
2017-02-01T02:21:33.412Z,93.8
2017-02-01T02:22:03.441Z,94.18
2017-02-01T02:22:33.818Z,93.99
2017-02-01T02:23:03.503Z,94.18
2017-02-01T02:23:33.534Z,93.99
2017-02-01T02:24:03.562Z,94.08
2017-02-01T02:24:33.597Z,93.89
2017-02-01T02:25:03.655Z,94.18
2017-02-01T02:25:33.648Z,94.27
2017-02-01T02:26:03.537Z,93.89
2017-02-01T02:26:33.714Z,94.37
2017-02-01T02:27:03.740Z,94.08
2017-02-01T02:27:34.074Z,93.99
2017-02-01T02:28:03.803Z,93.89
2017-02-01T02:28:33.831Z,93.89
2017-02-01T02:29:03.866Z,93.89
2017-02-01T02:29:33.900Z,93.89
2017-02-01T02:30:03.778Z,94.18
2017-02-01T02:30:33.954Z,93.8
2017-02-01T02:31:03.982Z,94.18
2017-02-01T02:31:34.018Z,93.89
2017-02-01T02:32:04.047Z,94.18
2017-02-01T02:32:34.076Z,93.89
2017-02-01T02:33:04.103Z,93.89
2017-02-01T02:33:34.142Z,93.8
2017-02-01T02:34:04.166Z,94.08
2017-02-01T02:34:34.195Z,94.08
2017-02-01T02:35:04.085Z,93.51
2017-02-01T02:35:34.255Z,93.89
2017-02-01T02:36:04.291Z,93.42
2017-02-01T02:36:34.319Z,93.51
2017-02-01T02:37:04.349Z,93.61
2017-02-01T02:37:34.372Z,93.7
2017-02-01T02:38:04.406Z,93.32
2017-02-01T02:38:34.443Z,93.51
2017-02-01T02:39:04.468Z,93.61
2017-02-01T02:39:34.499Z,93.51
2017-02-01T02:40:04.533Z,93.61
2017-02-01T02:40:34.561Z,93.42
2017-02-01T02:41:04.592Z,93.61
2017-02-01T02:41:34.620Z,93.51
2017-02-01T02:42:04.647Z,93.61
2017-02-01T02:42:34.681Z,93.8
2017-02-01T02:43:05.010Z,93.99
2017-02-01T02:43:34.744Z,93.89
2017-02-01T02:44:04.768Z,94.08
2017-02-01T02:44:34.800Z,94.08
2017-02-01T02:45:04.832Z,93.8
2017-02-01T02:45:34.864Z,93.8
2017-02-01T02:46:04.895Z,93.89
2017-02-01T02:46:34.922Z,93.89
2017-02-01T02:47:04.950Z,93.89
2017-02-01T02:47:34.981Z,93.89
2017-02-01T02:48:05.022Z,94.08
2017-02-01T02:48:35.049Z,93.99
2017-02-01T02:49:05.072Z,93.99
2017-02-01T02:49:35.103Z,93.99
2017-02-01T02:50:05.134Z,94.08
2017-02-01T02:50:35.161Z,94.27
2017-02-01T02:51:05.192Z,94.37
2017-02-01T02:51:35.222Z,94.37
2017-02-01T02:52:05.256Z,94.37
2017-02-01T02:52:35.284Z,94.56
2017-02-01T02:53:05.318Z,94.56
2017-02-01T02:53:35.342Z,94.08
2017-02-01T02:54:05.372Z,94.56
2017-02-01T02:54:35.403Z,94.46
2017-02-01T02:55:05.434Z,94.51
2017-02-01T02:55:35.463Z,94.27
2017-02-01T02:56:05.502Z,94.65
2017-02-01T02:56:35.526Z,94.27
2017-02-01T02:57:05.572Z,94.13
2017-02-01T02:57:35.583Z,94.18
2017-02-01T02:58:05.619Z,93.99
2017-02-01T02:58:35.950Z,94.23
2017-02-01T02:59:05.672Z,94.08
2017-02-01T02:59:35.713Z,94.08
2017-02-01T03:00:05.744Z,94.13
2017-02-01T03:00:35.765Z,93.89
2017-02-01T03:01:05.800Z,94.04
2017-02-01T03:01:35.832Z,93.89
2017-02-01T03:02:05.860Z,93.99
2017-02-01T03:02:35.888Z,93.99
2017-02-01T03:03:05.774Z,93.89
2017-02-01T03:03:35.952Z,93.75
2017-02-01T03:04:05.981Z,94.13
2017-02-01T03:04:36.006Z,94.13
2017-02-01T03:05:06.040Z,94.08
2017-02-01T03:05:36.081Z,94.04
2017-02-01T03:06:06.112Z,93.75
2017-02-01T03:06:36.129Z,94.08
2017-02-01T03:07:06.167Z,93.84
2017-02-01T03:07:36.190Z,93.89
2017-02-01T03:08:06.075Z,93.89
2017-02-01T03:08:36.251Z,93.65
2017-02-01T03:09:06.287Z,93.75
2017-02-01T03:09:36.165Z,93.56
2017-02-01T03:10:06.195Z,93.56
2017-02-01T03:10:36.370Z,93.51
2017-02-01T03:11:06.411Z,93.51
2017-02-01T03:11:36.432Z,93.84
2017-02-01T03:12:06.318Z,93.75
2017-02-01T03:12:36.494Z,93.84
2017-02-01T03:13:06.376Z,93.56
2017-02-01T03:13:36.555Z,93.37
2017-02-01T03:14:06.584Z,93.37
2017-02-01T03:14:36.615Z,93.32
2017-02-01T03:15:06.642Z,93.56
2017-02-01T03:15:36.679Z,93.56
2017-02-01T03:16:06.710Z,93.37
2017-02-01T03:16:36.735Z,93.84
2017-02-01T03:17:06.767Z,93.37
2017-02-01T03:17:36.824Z,93.75
2017-02-01T03:18:06.825Z,93.37
2017-02-01T03:18:36.858Z,93.84
2017-02-01T03:19:06.892Z,93.84
2017-02-01T03:19:36.914Z,93.84
2017-02-01T03:20:06.802Z,93.75
2017-02-01T03:20:36.980Z,93.84
2017-02-01T03:21:07.012Z,93.84
2017-02-01T03:21:37.040Z,93.75
2017-02-01T03:22:07.068Z,93.65
2017-02-01T03:22:37.100Z,93.65
2017-02-01T03:23:07.135Z,93.56
2017-02-01T03:23:37.160Z,93.46
2017-02-01T03:24:07.493Z,93.56
2017-02-01T03:24:37.232Z,94.13
2017-02-01T03:25:07.106Z,94.04
2017-02-01T03:25:37.281Z,93.94
2017-02-01T03:26:07.311Z,93.65
2017-02-01T03:26:37.343Z,93.75
2017-02-01T03:27:07.373Z,93.65
2017-02-01T03:27:37.402Z,93.65
2017-02-01T03:28:07.434Z,93.75
2017-02-01T03:28:37.465Z,93.46
2017-02-01T03:29:07.795Z,93.84
2017-02-01T03:29:37.520Z,93.84
2017-02-01T03:30:07.556Z,93.84
2017-02-01T03:30:37.586Z,93.65
2017-02-01T03:31:07.648Z,93.46
2017-02-01T03:31:37.642Z,93.94
2017-02-01T03:32:07.527Z,93.84
2017-02-01T03:32:37.705Z,93.65
2017-02-01T03:33:07.753Z,93.84
2017-02-01T03:33:37.792Z,93.46
2017-02-01T03:34:07.647Z,93.75
2017-02-01T03:34:37.829Z,93.56
2017-02-01T03:35:07.859Z,93.65
2017-02-01T03:35:37.886Z,93.75
2017-02-01T03:36:07.915Z,93.75
2017-02-01T03:36:37.949Z,93.84
2017-02-01T03:37:07.984Z,93.94
2017-02-01T03:37:38.012Z,93.56
2017-02-01T03:38:08.037Z,93.75
2017-02-01T03:38:38.069Z,93.65
2017-02-01T03:39:07.951Z,93.65
2017-02-01T03:39:38.137Z,93.7
2017-02-01T03:40:08.170Z,93.56
2017-02-01T03:40:38.195Z,93.84
2017-02-01T03:41:08.232Z,93.46
2017-02-01T03:41:38.287Z,93.46
2017-02-01T03:42:08.297Z,93.65
2017-02-01T03:42:38.312Z,93.84
2017-02-01T03:43:08.341Z,93.65
2017-02-01T03:43:38.374Z,93.65
2017-02-01T03:44:08.409Z,93.75
2017-02-01T03:44:38.436Z,93.84
2017-02-01T03:45:08.461Z,93.37
2017-02-01T03:45:38.496Z,93.84
2017-02-01T03:46:08.525Z,93.65
2017-02-01T03:46:38.553Z,93.56
2017-02-01T03:47:08.584Z,93.65
2017-02-01T03:47:38.615Z,93.56
2017-02-01T03:48:08.645Z,93.65
2017-02-01T03:48:38.680Z,93.94
2017-02-01T03:49:08.710Z,93.46
2017-02-01T03:49:38.987Z,93.56
2017-02-01T03:50:08.764Z,93.46
2017-02-01T03:50:38.799Z,93.56
2017-02-01T03:51:08.832Z,93.18
2017-02-01T03:51:38.857Z,93.37
2017-02-01T03:52:08.899Z,93.75
2017-02-01T03:52:38.921Z,93.75
2017-02-01T03:53:08.949Z,93.46
2017-02-01T03:53:38.980Z,93.32
2017-02-01T03:54:09.014Z,93.37
2017-02-01T03:54:39.039Z,93.42
2017-02-01T03:55:09.068Z,93.23
2017-02-01T03:55:39.102Z,94.04
2017-02-01T03:56:09.137Z,93.56
2017-02-01T03:56:39.164Z,93.7
2017-02-01T03:57:09.192Z,93.94
2017-02-01T03:57:39.220Z,93.89
2017-02-01T03:58:09.258Z,93.84
2017-02-01T03:58:39.286Z,93.8
2017-02-01T03:59:09.319Z,94.04
2017-02-01T03:59:39.378Z,93.84
2017-02-01T04:00:09.375Z,93.94
2017-02-01T04:00:39.408Z,94.04
2017-02-01T04:01:09.434Z,93.65
2017-02-01T04:01:39.471Z,93.94
2017-02-01T04:02:09.500Z,93.84
2017-02-01T04:02:39.526Z,93.56
2017-02-01T04:03:09.559Z,93.65
2017-02-01T04:03:39.591Z,93.18
2017-02-01T04:04:09.616Z,93.46
2017-02-01T04:04:39.647Z,93.42
2017-02-01T04:05:09.985Z,93.65
2017-02-01T04:05:39.707Z,93.27
2017-02-01T04:06:09.743Z,93.65
2017-02-01T04:06:39.769Z,93.37
2017-02-01T04:07:09.807Z,93.65
2017-02-01T04:07:39.836Z,93.65
2017-02-01T04:08:09.868Z,93.46
2017-02-01T04:08:39.892Z,93.65
2017-02-01T04:09:09.925Z,93.65
2017-02-01T04:09:39.954Z,93.32
2017-02-01T04:10:10.022Z,93.61
2017-02-01T04:10:40.011Z,93.61
2017-02-01T04:11:10.046Z,93.51
2017-02-01T04:11:40.078Z,93.75
2017-02-01T04:12:10.109Z,93.65
2017-02-01T04:12:40.133Z,93.7
2017-02-01T04:13:10.166Z,93.65
2017-02-01T04:13:40.196Z,93.46
2017-02-01T04:14:10.229Z,93.56
2017-02-01T04:14:40.264Z,93.42
2017-02-01T04:15:10.286Z,93.7
2017-02-01T04:15:40.324Z,93.51
2017-02-01T04:16:10.347Z,93.7
2017-02-01T04:16:40.380Z,93.56
2017-02-01T04:17:10.409Z,93.42
2017-02-01T04:17:40.442Z,93.42
2017-02-01T04:18:10.323Z,93.13
2017-02-01T04:18:40.497Z,93.7
2017-02-01T04:19:10.526Z,93.42
2017-02-01T04:19:40.563Z,93.61
2017-02-01T04:20:10.594Z,93.7
2017-02-01T04:20:41.074Z,93.65
2017-02-01T04:21:10.657Z,93.27
2017-02-01T04:21:40.680Z,93.65
2017-02-01T04:22:10.710Z,93.51
2017-02-01T04:22:40.751Z,93.56
2017-02-01T04:23:10.622Z,93.37
2017-02-01T04:23:40.804Z,93.56
2017-02-01T04:24:10.685Z,93.7
2017-02-01T04:24:40.865Z,93.51
2017-02-01T04:25:10.890Z,93.37
2017-02-01T04:25:40.924Z,93.84
2017-02-01T04:26:10.955Z,93.46
2017-02-01T04:26:40.985Z,93.37
2017-02-01T04:27:11.017Z,93.46
2017-02-01T04:27:41.046Z,93.27
2017-02-01T04:28:11.076Z,93.27
2017-02-01T04:28:41.105Z,93.27
2017-02-01T04:29:11.136Z,93.27
2017-02-01T04:29:41.167Z,93.46
2017-02-01T04:30:11.196Z,93.56
2017-02-01T04:30:41.228Z,93.27
2017-02-01T04:31:11.257Z,93.27
2017-02-01T04:31:41.288Z,94.04
2017-02-01T04:32:11.318Z,93.46
2017-02-01T04:32:41.345Z,93.46
2017-02-01T04:33:11.379Z,93.65
2017-02-01T04:33:41.443Z,93.56
2017-02-01T04:34:11.438Z,93.37
2017-02-01T04:34:41.470Z,93.46
2017-02-01T04:35:11.501Z,93.08
2017-02-01T04:35:41.528Z,93.37
2017-02-01T04:36:11.418Z,93.37
2017-02-01T04:36:41.589Z,93.56
2017-02-01T04:37:11.620Z,93.37
2017-02-01T04:37:41.652Z,93.13
2017-02-01T04:38:11.681Z,93.13
2017-02-01T04:38:41.713Z,93.08
2017-02-01T04:39:11.606Z,93.04
2017-02-01T04:39:41.776Z,93.04
2017-02-01T04:40:11.801Z,93.23
2017-02-01T04:40:41.834Z,93.13
2017-02-01T04:41:12.114Z,92.94
2017-02-01T04:41:41.893Z,93.13
2017-02-01T04:42:11.930Z,93.13
2017-02-01T04:42:41.956Z,93.23
2017-02-01T04:43:11.988Z,93.13
2017-02-01T04:43:42.018Z,93.23
2017-02-01T04:44:12.048Z,93.32
2017-02-01T04:44:42.078Z,93.13
2017-02-01T04:45:12.108Z,93.04
2017-02-01T04:45:42.135Z,93.32
2017-02-01T04:46:12.467Z,93.23
2017-02-01T04:46:42.201Z,92.94
2017-02-01T04:47:12.223Z,93.13
2017-02-01T04:47:42.259Z,93.04
2017-02-01T04:48:12.139Z,93.23
2017-02-01T04:48:42.316Z,93.61
2017-02-01T04:49:12.353Z,93.32
2017-02-01T04:49:42.380Z,93.32
2017-02-01T04:50:12.404Z,93.42
2017-02-01T04:50:42.439Z,93.51
2017-02-01T04:51:12.471Z,93.13
2017-02-01T04:51:42.500Z,93.04
2017-02-01T04:52:12.523Z,93.13
2017-02-01T04:52:42.558Z,93.23
2017-02-01T04:53:12.588Z,93.61
2017-02-01T04:53:42.618Z,93.23
2017-02-01T04:54:12.649Z,93.13
2017-02-01T04:54:42.678Z,93.51
2017-02-01T04:55:12.712Z,93.51
2017-02-01T04:55:42.736Z,93.61
2017-02-01T04:56:12.770Z,93.61
2017-02-01T04:56:42.797Z,92.85
2017-02-01T04:57:12.827Z,93.51
2017-02-01T04:57:42.860Z,93.61
2017-02-01T04:58:12.891Z,93.51
2017-02-01T04:58:42.926Z,93.42
2017-02-01T04:59:12.949Z,93.23
2017-02-01T04:59:42.982Z,93.51
2017-02-01T05:00:13.017Z,93.42
2017-02-01T05:00:43.036Z,93.42
2017-02-01T05:01:13.070Z,93.13
2017-02-01T05:01:43.098Z,93.99
2017-02-01T05:02:13.134Z,93.99
2017-02-01T05:02:43.157Z,93.7
2017-02-01T05:03:13.193Z,93.8
2017-02-01T05:03:43.223Z,93.89
2017-02-01T05:04:13.250Z,93.89
2017-02-01T05:04:43.279Z,93.89
2017-02-01T05:05:13.311Z,93.89
2017-02-01T05:05:43.340Z,93.89
2017-02-01T05:06:13.369Z,93.7
2017-02-01T05:06:43.904Z,93.61
2017-02-01T05:07:13.435Z,93.51
2017-02-01T05:07:43.461Z,93.61
2017-02-01T05:08:13.495Z,93.23
2017-02-01T05:08:43.519Z,93.61
2017-02-01T05:09:13.554Z,93.23
2017-02-01T05:09:43.583Z,93.61
2017-02-01T05:10:13.610Z,93.51
2017-02-01T05:10:43.641Z,93.51
2017-02-01T05:11:13.671Z,93.61
2017-02-01T05:11:43.710Z,93.7
2017-02-01T05:12:13.728Z,93.61
2017-02-01T05:12:43.758Z,93.8
2017-02-01T05:13:13.793Z,93.61
2017-02-01T05:13:43.825Z,93.61
2017-02-01T05:14:13.851Z,93.61
2017-02-01T05:14:43.881Z,93.32
2017-02-01T05:15:13.910Z,93.32
2017-02-01T05:15:43.946Z,93.32
2017-02-01T05:16:13.974Z,93.32
2017-02-01T05:16:44.006Z,93.42
2017-02-01T05:17:14.035Z,93.8
2017-02-01T05:17:44.064Z,93.61
2017-02-01T05:18:14.091Z,93.51
2017-02-01T05:18:44.127Z,93.7
2017-02-01T05:19:14.181Z,93.8
2017-02-01T05:19:44.181Z,93.89
2017-02-01T05:20:14.212Z,93.42
2017-02-01T05:20:44.244Z,93.8
2017-02-01T05:21:14.274Z,93.42
2017-02-01T05:21:44.305Z,93.42
2017-02-01T05:22:14.340Z,93.61
2017-02-01T05:22:44.367Z,93.84
2017-02-01T05:23:14.408Z,93.61
2017-02-01T05:23:44.428Z,93.61
2017-02-01T05:24:14.453Z,93.61
2017-02-01T05:24:44.488Z,93.51
2017-02-01T05:25:14.516Z,93.8
2017-02-01T05:25:44.551Z,93.7
2017-02-01T05:26:14.577Z,93.84
2017-02-01T05:26:44.611Z,93.8
2017-02-01T05:27:14.936Z,93.8
2017-02-01T05:27:44.667Z,93.51
2017-02-01T05:28:14.697Z,93.32
2017-02-01T05:28:44.730Z,93.61
2017-02-01T05:29:14.756Z,93.7
2017-02-01T05:29:44.792Z,93.8
2017-02-01T05:30:14.820Z,93.61
2017-02-01T05:30:44.848Z,93.42
2017-02-01T05:31:14.885Z,93.51
2017-02-01T05:31:44.906Z,93.42
2017-02-01T05:32:14.938Z,93.51
2017-02-01T05:32:44.971Z,93.7
2017-02-01T05:33:15.002Z,93.8
2017-02-01T05:33:45.029Z,93.42
2017-02-01T05:34:15.062Z,93.61
2017-02-01T05:34:45.090Z,93.61
2017-02-01T05:35:15.131Z,93.8
2017-02-01T05:35:45.152Z,93.32
2017-02-01T05:36:15.179Z,93.8
2017-02-01T05:36:45.212Z,93.32
2017-02-01T05:37:15.241Z,93.32
2017-02-01T05:37:45.271Z,93.32
2017-02-01T05:38:15.303Z,93.32
2017-02-01T05:38:45.334Z,93.8
2017-02-01T05:39:15.365Z,93.32
2017-02-01T05:39:45.396Z,93.32
2017-02-01T05:40:15.422Z,93.32
2017-02-01T05:40:45.447Z,93.42
2017-02-01T05:41:15.482Z,93.51
2017-02-01T05:41:45.514Z,93.8
2017-02-01T05:42:15.550Z,93.8
2017-02-01T05:42:45.824Z,93.8
2017-02-01T05:43:15.606Z,93.8
2017-02-01T05:43:45.635Z,93.61
2017-02-01T05:44:15.660Z,93.89
2017-02-01T05:44:45.700Z,93.89
2017-02-01T05:45:15.718Z,93.89
2017-02-01T05:45:45.749Z,93.99
2017-02-01T05:46:15.784Z,93.89
2017-02-01T05:46:45.816Z,93.89
2017-02-01T05:47:15.855Z,94.18
2017-02-01T05:47:46.223Z,94.18
2017-02-01T05:48:15.904Z,93.89
2017-02-01T05:48:45.935Z,94.08
2017-02-01T05:49:15.971Z,94.04
2017-02-01T05:49:45.997Z,93.99
2017-02-01T05:50:16.029Z,94.04
2017-02-01T05:50:46.085Z,93.94
2017-02-01T05:51:16.084Z,93.99
2017-02-01T05:51:46.119Z,93.94
2017-02-01T05:52:16.149Z,94.23
2017-02-01T05:52:46.474Z,93.94
2017-02-01T05:53:16.209Z,93.94
2017-02-01T05:53:46.238Z,93.94
2017-02-01T05:54:16.271Z,93.75
2017-02-01T05:54:46.295Z,93.75
2017-02-01T05:55:16.329Z,93.75
2017-02-01T05:55:46.358Z,94.23
2017-02-01T05:56:16.388Z,93.75
2017-02-01T05:56:46.417Z,93.94
2017-02-01T05:57:16.452Z,94.13
2017-02-01T05:57:46.481Z,94.04
2017-02-01T05:58:16.510Z,93.94
2017-02-01T05:58:46.539Z,93.56
2017-02-01T05:59:16.578Z,93.75
2017-02-01T05:59:46.601Z,93.46
2017-02-01T06:00:16.628Z,93.46
2017-02-01T06:00:46.661Z,93.46
2017-02-01T06:01:16.689Z,93.75
2017-02-01T06:01:46.722Z,93.46
2017-02-01T06:02:16.751Z,93.65
2017-02-01T06:02:46.783Z,93.46
2017-02-01T06:03:16.811Z,93.56
2017-02-01T06:03:46.844Z,93.56
2017-02-01T06:04:16.876Z,93.46
2017-02-01T06:04:46.912Z,93.46
2017-02-01T06:05:16.934Z,93.84
2017-02-01T06:05:46.966Z,93.56
2017-02-01T06:06:16.993Z,93.84
2017-02-01T06:06:47.030Z,93.56
2017-02-01T06:07:17.059Z,93.46
2017-02-01T06:07:47.086Z,93.46
2017-02-01T06:08:17.120Z,93.84
2017-02-01T06:08:47.146Z,93.84
2017-02-01T06:09:17.175Z,93.65
2017-02-01T06:09:47.207Z,93.56
2017-02-01T06:10:17.235Z,93.75
2017-02-01T06:10:47.272Z,93.75
2017-02-01T06:11:17.299Z,93.65
2017-02-01T06:11:47.337Z,93.56
2017-02-01T06:12:17.360Z,93.56
2017-02-01T06:12:47.386Z,93.56
2017-02-01T06:13:17.522Z,93.37
2017-02-01T06:13:47.455Z,93.84
2017-02-01T06:14:17.484Z,93.56
2017-02-01T06:14:47.504Z,93.37
2017-02-01T06:15:17.536Z,93.37
2017-02-01T06:15:47.429Z,93.37
2017-02-01T06:16:17.602Z,93.37
2017-02-01T06:16:47.626Z,93.75
2017-02-01T06:17:17.658Z,93.56
2017-02-01T06:17:47.693Z,93.65
2017-02-01T06:18:17.978Z,93.65
2017-02-01T06:18:47.764Z,93.56
2017-02-01T06:19:17.779Z,93.65
2017-02-01T06:19:47.817Z,93.65
2017-02-01T06:20:17.841Z,93.65
2017-02-01T06:20:47.875Z,93.56
2017-02-01T06:21:17.896Z,93.65
2017-02-01T06:21:47.938Z,93.84
2017-02-01T06:22:17.957Z,93.65
2017-02-01T06:22:47.995Z,93.75
2017-02-01T06:23:18.027Z,93.75
2017-02-01T06:23:48.054Z,93.65
2017-02-01T06:24:18.079Z,93.84
2017-02-01T06:24:48.113Z,93.56
2017-02-01T06:25:18.143Z,93.84
2017-02-01T06:25:48.172Z,93.84
2017-02-01T06:26:18.203Z,93.56
2017-02-01T06:26:48.233Z,93.37
2017-02-01T06:27:18.262Z,93.37
2017-02-01T06:27:48.292Z,93.56